AirNav   Air Wisconsin Up To $57,000 Bonus
 
 1251 users online  

25FA Jackson Memorial Hospital Heliport
Miami, Florida, USA

GOING TO MIAMI?


FAA INFORMATION EFFECTIVE 22 APRIL 2021

Location

FAA Identifier: 25FA
Lat/Long: 25-47-34.3000N 080-12-41.2900W
25-47.571667N 080-12.688167W
25.7928611,-80.2114694
(estimated)
Elevation: 92 ft. / 28 m (estimated)
Variation: 03W (1985)
From city: 2 miles NW of MIAMI, FL
Time zone: UTC -4 (UTC -5 during Standard Time)
Zip code: 33136

Heliport Operations

Heliport use: Private use, MEDICAL.
Activation date: 05/1964
Control tower: no
ARTCC: MIAMI CENTER
FSS: MIAMI FLIGHT SERVICE STATION
Attendance: CONTINUOUS
FOR ATTENDANCE, CALL 305-585-6913.
Wind indicator: yes
Segmented circle: no
Lights: SS-SR

Heliport Communications

WX ASOS at MIA (4 nm W): 119.15 (305-870-0235)
WX ASOS at OPF (8 nm NW): 125.9 (305-681-4063)
WX ASOS at HWO (13 nm N): PHONE 954-983-5904
WX ASOS at TMB (15 nm SW): 124.0 (305-235-1332)
WX ASOS at FLL (17 nm N): 135.0 (954-359-7857)

Nearby radio navigation aids

VOR radial/distance  VOR name  Freq  Var
VKZr313/3.9VIRGINIA KEY VOR/DME117.1004W
DHPr097/7.4DOLPHIN VORTAC113.9004W
FLLr194/17.0FORT LAUDERDALE VOR/DME114.4006W

Heliport Services

Airframe service: NONE
Powerplant service: NONE

Runway Information

Helipad H1

Dimensions: 50 x 50 ft. / 15 x 15 m
Surface: concrete, in good condition
ROOFTOP.
Runway edge lights: PERI
Latitude: 25-47.571667N
Longitude: 080-12.688167W
Elevation: 92.0 ft.
Traffic pattern: leftleft

Heliport Ownership and Management from official FAA records

Ownership: Publicly-owned
Owner: JACKSON MEMORIAL HOSPITAL
1611 NW 12TH AVENUE
MIAMI, FL 33136
Phone (305) 585-1140
Manager: OLGA D. QUINTANA
1611 NW 12TH AVENUE
MIAMI, FL 33136
Phone 305-585-1140

Heliport Operational Statistics

Aircraft based on the field: 1
Helicopters: 1
    

Additional Remarks

A52-H1 BLDGS & PLINES ALL SIDES.
RED GUIDE LIGHTS AT CORNERS; LETTER 'H' AT CENTER OF HELIPAD.
EXECUTE & MAINTAIN OPERATIONAL LOA WITH FOLLOWING HELIPORTS - MIAMI HERALD; MIAMI POLICE; SOUTHEAST BANK OPERATIONS.
FOR CD CTC MIAMI APCH AT 305-869-5432.

Instrument Procedures

There are no published instrument procedures at 25FA.

Some nearby airports with instrument procedures:

KMIA - Miami International Airport (4 nm W)
KOPF - Miami-Opa Locka Executive Airport (8 nm NW)
KHWO - North Perry Airport (13 nm N)
KTMB - Miami Executive Airport (15 nm SW)
KFLL - Fort Lauderdale/Hollywood International Airport (17 nm N)
 
Loc | Ops | Rwys | IFR | FBO | Links
Com | Nav | Svcs | Stats | Notes

Reliance Aviation
AirBoss

 
Area around 25FA (Jackson Memorial Hospital Heliport)
 
Road maps at: MapQuest Bing Google
 
Aerial photo
WARNING: Photo may not be current or correct
Aerial photo of 25FA (Jackson Memorial Hospital Heliport)
Do you have a better or more recent aerial photo of Jackson Memorial Hospital Heliport that you would like to share? If so, please send us your photo.

 
Sectional chart

 
Airport distance calculator
Flying to Jackson Memorial Hospital Heliport? Find the distance to fly.

From to 25FA

Sunrise and sunset
Times for 05-May-2021
 Local
(UTC-4)
 Zulu
(UTC)
Morning civil twilight06:1810:18
Sunrise06:4210:42
Sunset19:5323:53
Evening civil twilight20:1700:17

Current date and time
Zulu (UTC)  05-May-2021 23:05:48
Local (UTC-4)  05-May-2021 19:05:48
 
METAR
KMIA 
6nm W 
052253Z 14008KT 10SM FEW030 FEW250 29/22 A3002 RMK AO2 SLP166 CB DSNT NW T02940222 $
KOPF 
8nm NW 
052253Z 14010KT 10SM CLR 30/19 A3002 RMK AO2 SLP168 T03000189
KHWO 
12nm N 
052253Z 14009KT 10SM CLR 30/18 A3003 RMK AO2 SLP169 T03000178
KTMB 
15nm SW 
052253Z 16008KT 10SM CLR 31/22 A3001 RMK AO2 SLP160 T03060222
KFLL 
17nm N 
052253Z 14010KT 10SM FEW032 BKN250 29/23 A3002 RMK AO2 SLP163 CB DSNT NW T02890233
TAF
KMIA 
6nm W 
052056Z 0521/0624 15011KT P6SM FEW035 FM060100 VRB05KT P6SM FEW025 SCT250 FM061400 21008KT P6SM VCSH SCT025 SCT050 FM061900 19011KT P6SM VCTS SCT025CB BKN050
KOPF 
8nm NW 
052056Z 0521/0618 16011KT P6SM FEW035 FM060100 VRB05KT P6SM SCT030 FM061400 20010KT P6SM VCSH SCT025 SCT050
KTMB 
15nm SW 
052056Z 0521/0618 15007KT P6SM FEW035 FM060100 VRB04KT P6SM FEW025 SCT250 FM061400 17008KT P6SM VCSH SCT025 SCT050
KFLL 
17nm N 
052056Z 0521/0624 15011KT P6SM FEW035 FM060100 VRB05KT P6SM FEW025 SCT050 FM061400 21008KT P6SM VCSH SCT025 SCT050 FM061900 17011KT P6SM VCTS SCT025CB BKN050
NOTAMs
Click for the latest NOTAMs
NOTAMs are issued by the DoD/FAA and will open in a separate window not controlled by AirNav.

 

 
 

Would you like to see your business listed on this page?

 If your business provides an interesting product or service to pilots, flight crews, aircraft, or users of the Jackson Memorial Hospital Heliport, you should consider listing it here.  To start the listing process, click on the button below
 
Add a business
 

Other Pages about Jackson Memorial Hospital Heliport

Update a link
 
Copyright © AirNav, LLC. All rights reserved. Privacy Policy  Contact